Time;durP1;ratioP1;P1;durP2;ratioP2;P2;SDS_P1;SDS_P2;PMS_P1;PMS_P2;Temp;Humidity;BMP_temperature;BMP_pressure;BME280_temperature;BME280_humidity;BME280_pressure;Samples;Min_cycle;Max_cycle;Signal;HPM_P1;HPM_P2
2021/06/29 00:00:31;;;;;;;5.20;3.40;;;;;;;19.45;76.85;97906.16;5184385;27;20392;-57
2021/06/29 00:03:37;;;;;;;4.90;3.30;;;;;;;19.37;77.19;97901.63;5127209;27;21003;-59
2021/06/29 00:06:32;;;;;;;5.97;3.35;;;;;;;19.35;77.28;97900.41;5175235;27;20408;-58
2021/06/29 00:09:38;;;;;;;5.80;3.45;;;;;;;19.28;77.90;97912.47;5147822;27;20387;-57
2021/06/29 00:12:32;;;;;;;4.45;3.38;;;;;;;19.23;77.94;97903.81;5192986;27;20726;-58
2021/06/29 00:15:33;;;;;;;6.70;3.70;;;;;;;19.24;78.03;97908.09;5115824;27;20413;-57
2021/06/29 00:18:28;;;;;;;6.70;3.72;;;;;;;19.18;78.23;97907.50;5150489;27;20126;-58
2021/06/29 00:21:23;;;;;;;4.40;3.53;;;;;;;19.22;78.21;97902.25;5176887;27;20416;-58
2021/06/29 00:24:17;;;;;;;3.80;3.30;;;;;;;19.28;78.00;97904.41;5192280;27;20445;-57
2021/06/29 00:27:17;;;;;;;4.85;3.55;;;;;;;19.29;77.67;97900.63;5105118;27;20754;-59
2021/06/29 00:30:24;;;;;;;3.35;3.05;;;;;;;19.28;77.51;97899.03;5120669;27;20129;-57
2021/06/29 00:33:24;;;;;;;5.75;3.08;;;;;;;19.27;77.58;97910.13;5144620;27;20406;-57
2021/06/29 00:36:32;;;;;;;4.20;2.85;;;;;;;19.22;77.61;97894.22;5131756;27;20412;-57
2021/06/29 00:39:27;;;;;;;5.47;2.97;;;;;;;19.17;77.66;97908.63;5150433;27;20135;-58
2021/06/29 00:42:22;;;;;;;4.22;3.15;;;;;;;19.06;77.86;97907.47;5192519;27;20494;-58
2021/06/29 00:45:17;;;;;;;4.60;3.25;;;;;;;19.07;78.00;97906.34;5144557;27;20610;-59
2021/06/29 00:48:10;;;;;;;6.75;3.42;;;;;;;19.09;78.30;97914.06;5192242;27;20442;-57
2021/06/29 00:51:06;;;;;;;4.00;3.17;;;;;;;19.10;77.76;97919.13;5137659;27;20901;-58
2021/06/29 00:54:01;;;;;;;3.53;2.90;;;;;;;19.13;78.10;97918.47;5192284;27;20406;-57
2021/06/29 00:57:12;;;;;;;4.65;3.40;;;;;;;19.10;77.62;97921.81;5106835;27;20369;-57
2021/06/29 01:00:08;;;;;;;5.63;3.10;;;;;;;19.01;77.32;97921.88;5188167;27;20560;-58
2021/06/29 01:03:03;;;;;;;3.83;3.25;;;;;;;19.06;77.43;97919.00;5192284;27;20409;-58
2021/06/29 01:05:58;;;;;;;3.67;3.15;;;;;;;19.03;77.37;97908.91;5180450;27;20399;-57
2021/06/29 01:09:05;;;;;;;8.50;2.90;;;;;;;19.09;77.56;97912.19;5127335;27;20425;-57
2021/06/29 01:11:59;;;;;;;5.32;2.90;;;;;;;19.09;77.49;97903.31;5171842;27;20435;-57
2021/06/29 01:14:54;;;;;;;7.55;3.22;;;;;;;19.12;77.38;97908.84;5147897;27;20126;-57
2021/06/29 01:17:55;;;;;;;5.60;2.72;;;;;;;19.09;77.52;97917.56;5192351;27;20426;-58
2021/06/29 01:20:48;;;;;;;4.38;3.50;;;;;;;19.03;77.90;97914.28;5128532;27;20413;-57
2021/06/29 01:23:54;;;;;;;3.63;3.15;;;;;;;19.03;77.98;97916.16;5131747;27;20417;-58
2021/06/29 01:27:13;;;;;;;4.57;2.90;;;;;;;19.00;77.92;97912.25;5094720;27;20421;-56
2021/06/29 01:33:19;;;;;;;3.20;2.90;;;;;;;19.02;77.82;97906.53;5132134;27;20493;-58
2021/06/29 01:36:36;;;;;;;4.38;3.20;;;;;;;19.01;77.93;97905.75;5178098;27;20476;-57
2021/06/29 01:39:36;;;;;;;3.65;3.15;;;;;;;19.05;77.47;97912.03;5144650;27;20417;-58
2021/06/29 01:42:41;;;;;;;6.85;2.90;;;;;;;19.11;77.42;97920.69;5148351;27;20437;-56
2021/06/29 01:45:35;;;;;;;5.55;3.10;;;;;;;19.14;77.15;97908.50;5183782;27;20439;-58
2021/06/29 01:48:30;;;;;;;5.93;2.53;;;;;;;19.15;76.87;97907.38;5150396;27;20390;-58
2021/06/29 01:51:23;;;;;;;4.97;3.00;;;;;;;19.14;76.95;97920.00;5177150;27;20412;-56
2021/06/29 01:54:19;;;;;;;4.50;2.65;;;;;;;19.10;77.40;97910.28;5150421;27;20126;-57
2021/06/29 01:57:17;;;;;;;4.00;2.88;;;;;;;19.12;77.16;97922.25;5120993;27;20418;-58
2021/06/29 02:00:27;;;;;;;4.40;3.10;;;;;;;19.08;77.39;97920.56;5140896;27;20400;-59
2021/06/29 02:03:22;;;;;;;5.45;3.05;;;;;;;19.06;77.37;97915.53;5150377;27;20356;-58
2021/06/29 02:06:17;;;;;;;7.18;3.10;;;;;;;19.13;77.35;97920.38;5177706;27;21014;-57
2021/06/29 02:09:12;;;;;;;5.45;2.92;;;;;;;19.21;77.15;97922.97;5150376;27;20597;-58
2021/06/29 02:12:08;;;;;;;3.10;2.80;;;;;;;19.25;77.00;97920.41;5113260;27;20443;-58
2021/06/29 02:15:19;;;;;;;4.95;3.25;;;;;;;19.31;76.49;97929.06;5142471;27;20773;-58
2021/06/29 02:18:14;;;;;;;4.53;3.10;;;;;;;19.22;76.49;97911.09;5192462;27;20862;-58
2021/06/29 02:21:24;;;;;;;5.82;3.20;;;;;;;19.32;76.35;97923.34;5112160;27;20378;-59
2021/06/29 02:24:19;;;;;;;4.00;3.33;;;;;;;19.33;76.29;97922.25;5192524;27;20846;-58
2021/06/29 02:27:29;;;;;;;3.97;3.17;;;;;;;19.36;76.28;97918.09;5106799;27;20400;-57
2021/06/29 02:30:35;;;;;;;4.90;3.00;;;;;;;19.39;75.83;97918.22;5139779;27;20392;-58
2021/06/29 02:33:43;;;;;;;4.75;3.42;;;;;;;19.40;75.76;97925.16;5148060;27;20402;-57
2021/06/29 02:36:38;;;;;;;4.68;3.40;;;;;;;19.34;76.09;97926.47;5133086;27;20508;-57
2021/06/29 02:39:31;;;;;;;5.70;3.25;;;;;;;19.38;75.74;97923.91;5192327;27;20437;-58
2021/06/29 02:42:26;;;;;;;4.60;3.28;;;;;;;19.42;75.70;97914.09;5150443;27;20590;-58
2021/06/29 02:45:21;;;;;;;3.95;3.38;;;;;;;19.44;75.81;97930.66;5124218;27;20926;-58
2021/06/29 02:48:16;;;;;;;6.32;3.40;;;;;;;19.43;75.93;97931.78;5192198;27;20524;-57
2021/06/29 02:51:10;;;;;;;5.00;3.45;;;;;;;19.39;75.92;97938.94;5179033;27;20846;-57
2021/06/29 02:54:05;;;;;;;4.88;3.22;;;;;;;19.35;76.21;97929.94;5150418;27;20126;-58
2021/06/29 02:57:13;;;;;;;9.80;3.65;;;;;;;19.34;76.02;97931.06;5147732;27;20982;-58
2021/06/29 03:00:18;;;;;;;5.03;3.90;;;;;;;19.27;76.42;97928.94;5131713;27;20433;-58
2021/06/29 03:03:24;;;;;;;6.05;3.85;;;;;;;19.31;76.33;97923.69;5148116;27;20398;-58
2021/06/29 03:06:18;;;;;;;5.70;3.78;;;;;;;19.33;76.46;97926.81;5177613;27;20431;-58
2021/06/29 03:09:21;;;;;;;4.70;3.70;;;;;;;19.29;76.94;97927.50;5111032;27;20633;-58
2021/06/29 03:12:16;;;;;;;5.32;3.28;;;;;;;19.29;76.82;97932.06;5129723;27;20540;-57
2021/06/29 03:15:11;;;;;;;4.22;3.83;;;;;;;19.30;77.27;97928.28;5145546;27;20180;-58
2021/06/29 03:18:05;;;;;;;5.50;3.60;;;;;;;19.28;77.14;97933.19;5192157;27;20437;-58
2021/06/29 03:20:58;;;;;;;7.00;4.03;;;;;;;19.29;76.58;97932.88;5096109;27;20146;-58
2021/06/29 03:23:35;;;;;;;5.30;3.88;;;;;;;19.22;76.63;97924.53;4476331;27;19508707;-56
2021/06/29 03:26:28;;;;;;;6.35;4.18;;;;;;;19.29;76.54;97937.44;5102731;27;20413;-58
2021/06/29 03:29:29;;;;;;;5.90;3.95;;;;;;;19.34;76.43;97931.06;5144640;27;20402;-58
2021/06/29 03:32:22;;;;;;;4.72;3.70;;;;;;;19.45;76.09;97938.41;5150335;27;20398;-58
2021/06/29 03:35:19;;;;;;;5.18;3.15;;;;;;;19.57;75.81;97942.25;5104557;27;20134;-58
2021/06/29 03:38:15;;;;;;;5.25;3.80;;;;;;;19.69;75.03;97931.56;5150398;27;20122;-58
2021/06/29 03:41:10;;;;;;;5.10;3.75;;;;;;;19.67;74.95;97934.56;5178678;27;20391;-58
2021/06/29 03:44:06;;;;;;;4.70;3.80;;;;;;;19.62;74.78;97934.75;5113457;27;20446;-57
2021/06/29 03:47:00;;;;;;;6.75;3.70;;;;;;;19.55;75.02;97922.97;5171464;27;20395;-58
2021/06/29 03:49:55;;;;;;;5.30;3.72;;;;;;;19.72;74.83;97937.03;5147714;27;20130;-58
2021/06/29 03:53:02;;;;;;;5.15;3.47;;;;;;;19.78;74.39;97928.78;5148009;27;20390;-58
2021/06/29 03:55:55;;;;;;;4.63;3.45;;;;;;;19.72;74.69;97928.97;5180853;27;20391;-58
2021/06/29 03:59:02;;;;;;;4.20;3.65;;;;;;;19.81;74.72;97936.16;5123705;27;20357;-57
2021/06/29 04:01:57;;;;;;;4.90;3.17;;;;;;;19.81;74.79;97931.56;5150941;27;19930;-58
2021/06/29 04:04:51;;;;;;;4.75;3.50;;;;;;;19.80;74.89;97935.38;5120172;27;20407;-58
2021/06/29 04:07:47;;;;;;;4.95;3.65;;;;;;;19.96;74.38;97936.28;5192242;27;20466;-58
2021/06/29 04:10:37;;;;;;;4.07;3.67;;;;;;;19.93;74.13;97936.97;5128895;27;20420;-57
2021/06/29 04:13:32;;;;;;;5.03;3.60;;;;;;;19.89;74.28;97936.06;5150224;27;20726;-58
2021/06/29 04:16:24;;;;;;;4.40;3.35;;;;;;;19.95;74.06;97945.50;5105194;27;20413;-57
2021/06/29 04:19:22;;;;;;;4.72;3.60;;;;;;;19.95;74.13;97937.44;5104332;27;20368;-58
2021/06/29 04:22:28;;;;;;;4.05;2.95;;;;;;;19.85;74.13;97932.47;5106722;27;20350;-59
2021/06/29 04:25:24;;;;;;;5.53;3.20;;;;;;;19.79;74.11;97944.56;5143710;27;20357;-58
2021/06/29 04:28:29;;;;;;;6.00;3.55;;;;;;;19.79;74.19;97939.16;5147792;27;20998;-58
2021/06/29 04:31:34;;;;;;;4.13;3.22;;;;;;;19.80;73.94;97942.66;5131440;27;20813;-58
2021/06/29 04:34:28;;;;;;;3.60;3.30;;;;;;;19.70;74.55;97944.63;5192311;27;20535;-57
2021/06/29 04:37:24;;;;;;;3.72;2.80;;;;;;;19.66;74.28;97943.75;5150362;27;20130;-58
2021/06/29 04:40:18;;;;;;;7.47;2.83;;;;;;;19.68;74.10;97946.91;5186121;27;20411;-58
2021/06/29 04:43:13;;;;;;;4.45;3.10;;;;;;;19.83;73.73;97944.69;5150214;27;20130;-59
2021/06/29 04:46:22;;;;;;;5.97;3.05;;;;;;;19.94;73.45;97945.81;5132497;27;20436;-57
2021/06/29 04:49:20;;;;;;;5.00;3.03;;;;;;;20.01;73.08;97947.97;5150204;27;20621;-58
2021/06/29 04:52:14;;;;;;;3.38;2.53;;;;;;;20.09;73.03;97949.75;5129565;27;20410;-58
2021/06/29 04:55:16;;;;;;;6.32;3.42;;;;;;;20.28;72.25;97952.69;5118311;27;20378;-58
2021/06/29 04:58:16;;;;;;;3.85;2.92;;;;;;;20.53;71.62;97948.13;5144533;27;20787;-58
2021/06/29 05:01:20;;;;;;;5.32;3.40;;;;;;;20.75;70.66;97949.53;5101329;27;20143;-56
2021/06/29 05:04:14;;;;;;;3.53;2.70;;;;;;;21.01;69.62;97957.25;5149982;27;20360;-58
2021/06/29 05:07:07;;;;;;;3.47;3.00;;;;;;;21.15;68.53;97946.09;5171415;27;20557;-57
2021/06/29 05:10:06;;;;;;;3.30;2.72;;;;;;;21.09;68.98;97950.94;5104641;27;20263;-58
2021/06/29 05:13:03;;;;;;;3.53;2.85;;;;;;;20.85;69.98;97942.91;5113122;27;20419;-58
2021/06/29 05:15:56;;;;;;;3.80;3.40;;;;;;;20.60;71.87;97951.03;5180786;27;20443;-58
2021/06/29 05:18:52;;;;;;;5.10;3.70;;;;;;;20.36;73.93;97943.72;5149983;27;20356;-58
2021/06/29 05:21:47;;;;;;;3.80;3.13;;;;;;;20.44;73.98;97952.78;5173100;27;20444;-57
2021/06/29 05:24:41;;;;;;;4.18;3.00;;;;;;;20.53;73.13;97955.41;5149398;27;20445;-58
2021/06/29 05:27:39;;;;;;;3.10;2.80;;;;;;;20.69;73.05;97950.13;5191739;27;20449;-57
2021/06/29 05:30:49;;;;;;;5.00;2.85;;;;;;;21.16;71.70;97954.97;5136985;27;20400;-58
2021/06/29 05:33:42;;;;;;;3.85;3.08;;;;;;;21.60;70.05;97955.03;5191963;27;20523;-57
2021/06/29 05:36:43;;;;;;;5.18;3.03;;;;;;;21.63;69.27;97957.81;5100257;27;20155;-58
2021/06/29 05:39:38;;;;;;;3.15;2.85;;;;;;;21.65;68.99;97960.97;5148235;27;20404;-59
2021/06/29 05:42:31;;;;;;;3.58;2.80;;;;;;;21.58;68.51;97959.97;5118135;27;20461;-57
2021/06/29 05:45:24;;;;;;;3.75;2.60;;;;;;;21.57;68.80;97953.81;5184756;27;20923;-57
2021/06/29 05:48:34;;;;;;;3.75;2.70;;;;;;;21.75;67.81;97954.28;5126465;27;20354;-58
2021/06/29 05:51:10;;;;;;;3.20;2.83;;;;;;;21.70;67.18;97952.59;4514429;27;15062613;-57
2021/06/29 05:54:04;;;;;;;4.05;2.45;;;;;;;21.81;67.17;97950.19;5191750;27;20403;-57
2021/06/29 05:56:58;;;;;;;3.17;2.75;;;;;;;21.98;66.03;97949.84;5129895;27;20152;-58
2021/06/29 05:59:52;;;;;;;2.83;2.58;;;;;;;21.99;65.49;97956.03;5189847;27;20409;-58
2021/06/29 06:02:27;;;;;;;3.30;2.65;;;;;;;22.12;65.25;97949.44;4480772;27;19376951;-58
2021/06/29 06:05:21;;;;;;;3.17;2.20;;;;;;;22.38;65.02;97950.81;5185614;27;20510;-60
2021/06/29 06:08:13;;;;;;;5.15;2.70;;;;;;;22.66;64.03;97950.69;5109042;27;20873;-58
2021/06/29 06:11:06;;;;;;;3.00;2.55;;;;;;;22.68;63.66;97949.22;5179072;27;20456;-58
2021/06/29 06:14:01;;;;;;;2.50;2.30;;;;;;;22.68;63.22;97948.44;5150111;27;20130;-59
2021/06/29 06:16:55;;;;;;;4.10;2.50;;;;;;;22.73;62.67;97950.84;5151120;27;20433;-57
2021/06/29 06:19:46;;;;;;;4.60;2.58;;;;;;;22.62;62.94;97934.44;5109701;27;20355;-59
2021/06/29 06:22:48;;;;;;;2.95;1.98;;;;;;;22.76;61.70;97933.16;5131257;27;20393;-58
2021/06/29 06:25:41;;;;;;;3.13;2.22;;;;;;;23.01;61.81;97937.19;5126877;27;20463;-59
2021/06/29 06:28:34;;;;;;;3.03;2.17;;;;;;;23.26;60.13;97936.91;5118099;27;20465;-57
2021/06/29 06:31:10;;;;;;;3.17;2.20;;;;;;;23.13;60.78;97944.38;4284260;27;23830113;-58
2021/06/29 06:34:04;;;;;;;2.75;2.55;;;;;;;23.42;60.33;97939.56;5191932;27;20398;-58
2021/06/29 06:36:58;;;;;;;2.50;2.30;;;;;;;23.57;58.68;97933.25;5171642;27;20849;-59
2021/06/29 06:39:53;;;;;;;2.65;2.30;;;;;;;23.51;59.26;97938.19;5147528;27;20130;-57
2021/06/29 06:43:01;;;;;;;2.63;2.42;;;;;;;23.48;59.54;97943.53;5147662;27;20398;-59
2021/06/29 06:45:55;;;;;;;4.05;2.55;;;;;;;23.07;60.35;97949.28;5180461;27;20411;-57
2021/06/29 06:48:50;;;;;;;5.35;2.88;;;;;;;22.85;61.75;97939.13;5150020;27;20204;-58
2021/06/29 06:51:44;;;;;;;3.60;2.85;;;;;;;22.76;61.94;97955.53;5173638;27;20494;-59
2021/06/29 06:54:39;;;;;;;2.60;2.40;;;;;;;22.61;62.06;97940.94;5149821;27;20142;-57
2021/06/29 06:57:32;;;;;;;4.13;2.55;;;;;;;22.59;62.12;97951.34;5192315;27;20878;-59
2021/06/29 07:00:29;;;;;;;2.40;2.15;;;;;;;22.59;62.66;97956.72;5135108;27;20135;-57
2021/06/29 07:03:24;;;;;;;2.42;2.20;;;;;;;22.68;61.95;97956.53;5191946;27;20519;-58
2021/06/29 07:06:33;;;;;;;4.15;3.20;;;;;;;22.84;61.68;97957.28;5110018;27;20949;-57
2021/06/29 07:09:25;;;;;;;5.28;2.42;;;;;;;23.04;61.23;97960.81;5099665;27;20503;-59
2021/06/29 07:12:20;;;;;;;2.75;2.30;;;;;;;22.99;60.83;97961.09;5150069;27;20130;-60
2021/06/29 07:15:16;;;;;;;2.40;2.17;;;;;;;23.21;60.40;97964.25;5111837;27;20465;-57
2021/06/29 07:18:15;;;;;;;3.78;2.10;;;;;;;23.26;60.31;97964.72;5188602;27;20458;-58
2021/06/29 07:21:09;;;;;;;2.58;2.33;;;;;;;23.31;60.30;97967.16;5065516;28;20408;-57
2021/06/29 07:23:47;;;;;;;3.05;2.00;;;;;;;23.33;60.38;97959.47;5104460;27;20407;-58
2021/06/29 07:26:23;;;;;;;3.60;2.50;;;;;;;23.31;60.52;97969.06;5065120;28;20134;-58
2021/06/29 07:29:01;;;;;;;2.70;2.28;;;;;;;23.07;60.69;97970.91;5121385;27;20137;-57
2021/06/29 07:31:39;;;;;;;2.95;2.08;;;;;;;22.80;61.22;97969.16;5063446;28;20402;-57
2021/06/29 07:34:17;;;;;;;4.78;2.17;;;;;;;22.67;61.92;97974.63;5063576;28;20386;-57
2021/06/29 07:36:55;;;;;;;2.53;2.33;;;;;;;22.63;61.97;97978.41;5105505;27;20590;-58
2021/06/29 07:39:33;;;;;;;2.53;2.30;;;;;;;22.42;63.23;97965.22;5064841;28;20395;-57
2021/06/29 07:42:09;;;;;;;4.65;2.17;;;;;;;22.67;62.44;97971.94;5063216;27;20127;-58
2021/06/29 07:44:46;;;;;;;2.70;2.50;;;;;;;22.84;62.66;97988.91;5064749;28;20145;-56
2021/06/29 07:47:23;;;;;;;3.03;2.70;;;;;;;22.73;63.19;97980.56;5104283;27;20124;-56
2021/06/29 07:50:02;;;;;;;3.33;2.42;;;;;;;22.42;64.79;97994.91;5066775;28;20405;-57
2021/06/29 07:52:39;;;;;;;6.03;2.60;;;;;;;22.21;66.40;97990.56;5066399;27;20391;-57
2021/06/29 07:55:16;;;;;;;5.13;2.50;;;;;;;22.15;68.08;97991.91;5168629;27;20129;-55
2021/06/29 07:57:53;;;;;;;5.10;2.55;;;;;;;22.11;67.18;97969.44;5066255;28;20132;-57
2021/06/29 08:00:31;;;;;;;2.30;2.10;;;;;;;22.29;66.21;97988.00;5105758;27;20861;-59
2021/06/29 08:03:09;;;;;;;2.33;2.13;;;;;;;22.61;64.82;97997.66;5106378;27;20769;-59
2021/06/29 08:05:45;;;;;;;3.53;2.20;;;;;;;22.92;63.32;97992.56;5065127;28;20138;-58
2021/06/29 08:08:23;;;;;;;3.25;2.10;;;;;;;23.18;62.13;97992.78;5146746;27;20424;-59
2021/06/29 08:11:04;;;;;;;3.03;2.42;;;;;;;23.36;61.21;97982.31;5105766;27;20363;-58
2021/06/29 08:13:40;;;;;;;3.35;2.17;;;;;;;23.55;60.72;97971.47;5105392;27;1341641;-59
2021/06/29 08:16:18;;;;;;;2.47;2.28;;;;;;;23.41;60.96;97979.31;5063960;28;20402;-58
2021/06/29 08:18:55;;;;;;;2.22;2.03;;;;;;;23.20;60.80;97976.97;5104896;27;20133;-58
2021/06/29 08:21:32;;;;;;;2.67;2.25;;;;;;;22.95;61.10;97981.84;5103588;27;20133;-58
2021/06/29 08:24:08;;;;;;;2.15;1.92;;;;;;;22.60;61.96;97989.91;5105902;27;20129;-59
2021/06/29 08:26:46;;;;;;;2.92;1.85;;;;;;;22.46;61.91;98001.16;5066138;28;20430;-59
2021/06/29 08:29:23;;;;;;;3.92;2.55;;;;;;;22.33;62.73;97997.00;5065156;27;20134;-58
2021/06/29 08:31:59;;;;;;;2.20;2.00;;;;;;;22.23;62.87;98012.56;5063576;28;20662;-58
2021/06/29 08:34:36;;;;;;;2.28;2.08;;;;;;;22.11;63.45;98007.22;5067581;28;20135;-57
2021/06/29 08:37:13;;;;;;;3.20;2.25;;;;;;;22.20;63.19;98012.47;5066195;28;20130;-58
2021/06/29 08:39:49;;;;;;;3.47;2.15;;;;;;;22.54;62.56;98013.69;5065102;28;20221;-58
2021/06/29 08:42:26;;;;;;;2.80;2.45;;;;;;;22.63;61.61;98014.31;5104443;27;20124;-59
2021/06/29 08:45:08;;;;;;;3.65;2.50;;;;;;;22.81;61.70;98020.09;5065932;28;20142;-58
2021/06/29 08:47:45;;;;;;;4.97;2.60;;;;;;;23.00;61.31;98015.91;5104119;27;20389;-59
2021/06/29 08:50:23;;;;;;;6.75;2.42;;;;;;;23.01;59.75;98018.28;5059530;28;20544;-59
2021/06/29 08:53:05;;;;;;;2.72;2.53;;;;;;;23.11;59.88;98009.59;5065178;28;20951;-57
2021/06/29 08:55:44;;;;;;;4.65;2.13;;;;;;;23.34;59.32;98008.91;5065870;28;20386;-58
2021/06/29 08:58:22;;;;;;;2.35;2.15;;;;;;;23.40;59.47;98018.31;5063792;27;20760;-57
2021/06/29 09:01:00;;;;;;;2.53;2.10;;;;;;;23.49;58.36;98015.41;5063469;28;20574;-55
2021/06/29 09:03:39;;;;;;;2.90;2.42;;;;;;;23.64;58.38;98009.13;5065233;28;20440;-58
2021/06/29 09:06:29;;;;;;;2.08;1.88;;;;;;;23.57;58.23;98022.50;5126364;27;20350;-59
2021/06/29 09:09:25;;;;;;;2.75;2.20;;;;;;;23.45;58.29;98026.16;5105385;27;20718;-59
2021/06/29 09:12:02;;;;;;;3.25;2.15;;;;;;;23.07;59.38;98026.88;5107276;27;20392;-57
2021/06/29 09:14:39;;;;;;;5.10;2.10;;;;;;;23.03;59.31;98029.53;5064976;28;20134;-54
2021/06/29 09:17:20;;;;;;;3.40;1.80;;;;;;;22.92;60.08;98025.75;5001926;28;20407;-58
2021/06/29 09:19:58;;;;;;;4.28;2.17;;;;;;;23.00;59.74;98027.53;5108783;27;20391;-59
2021/06/29 09:22:36;;;;;;;2.50;2.00;;;;;;;23.18;59.17;98016.28;5064342;28;20406;-56
2021/06/29 09:25:30;;;;;;;2.65;2.15;;;;;;;23.50;58.97;98023.16;5063633;27;20130;-58
2021/06/29 09:28:07;;;;;;;3.65;2.08;;;;;;;23.45;58.97;98025.38;5065330;28;20391;-57
2021/06/29 09:30:47;;;;;;;3.17;2.15;;;;;;;23.39;58.38;98015.97;5105570;27;20124;-59
2021/06/29 09:33:27;;;;;;;2.30;2.10;;;;;;;23.28;58.95;98021.94;5064053;28;20765;-58
2021/06/29 09:36:07;;;;;;;2.72;2.20;;;;;;;22.90;60.18;98030.72;4985305;28;20416;-59
2021/06/29 09:38:46;;;;;;;3.42;2.50;;;;;;;22.61;61.04;98032.75;5105747;27;20396;-59
2021/06/29 09:41:28;;;;;;;3.70;2.15;;;;;;;22.39;61.78;98031.47;5065979;28;20916;-59
2021/06/29 09:44:08;;;;;;;4.72;2.50;;;;;;;22.37;61.51;98039.13;5107851;27;20380;-60
2021/06/29 09:46:47;;;;;;;6.78;2.50;;;;;;;22.61;61.28;98038.16;5086043;27;20416;-57
2021/06/29 09:49:27;;;;;;;3.80;2.60;;;;;;;23.07;60.36;98032.28;5126457;27;20316;-57
2021/06/29 09:52:05;;;;;;;4.00;2.40;;;;;;;23.42;59.06;98034.19;5106276;27;20894;-56
2021/06/29 09:54:42;;;;;;;3.33;2.13;;;;;;;23.48;58.51;98038.19;5105287;27;20133;-58
2021/06/29 09:57:25;;;;;;;4.05;2.47;;;;;;;23.40;58.79;98037.25;4986518;28;20137;-56
2021/06/29 10:00:04;;;;;;;2.33;2.13;;;;;;;23.60;57.87;98042.66;5106237;27;20902;-56
2021/06/29 10:02:47;;;;;;;4.65;2.20;;;;;;;23.88;56.95;98045.16;5104196;27;1360536;-59
2021/06/29 10:05:25;;;;;;;2.72;2.10;;;;;;;23.87;56.78;98041.66;5065535;28;20134;-58
2021/06/29 10:08:02;;;;;;;7.57;2.33;;;;;;;23.40;57.72;98037.25;5065705;28;20995;-57
2021/06/29 10:10:39;;;;;;;2.90;2.20;;;;;;;23.00;59.20;98051.03;5065714;28;20141;-58
2021/06/29 10:13:17;;;;;;;3.92;2.17;;;;;;;22.54;60.74;98056.91;5105530;27;20132;-57
2021/06/29 10:15:53;;;;;;;2.60;2.20;;;;;;;22.52;60.63;98055.69;5114948;27;20406;-57
2021/06/29 10:18:32;;;;;;;3.05;2.00;;;;;;;22.49;61.23;98053.69;5063407;28;20139;-58
2021/06/29 10:21:21;;;;;;;3.85;2.25;;;;;;;22.30;61.45;98041.66;5063934;28;20777;-56
2021/06/29 10:24:02;;;;;;;3.88;2.20;;;;;;;22.33;61.59;98049.06;5107333;27;20377;-58
2021/06/29 10:26:41;;;;;;;2.25;2.05;;;;;;;22.29;61.76;98052.78;5104715;27;20400;-58
2021/06/29 10:29:20;;;;;;;2.85;2.20;;;;;;;22.15;61.62;98051.28;5067334;28;20416;-60
2021/06/29 10:32:09;;;;;;;3.10;2.15;;;;;;;22.08;61.89;98047.59;5106822;27;20399;-59
2021/06/29 10:34:47;;;;;;;2.30;2.10;;;;;;;21.93;62.65;98054.53;5107965;27;20407;-57
2021/06/29 10:37:24;;;;;;;4.97;2.55;;;;;;;22.08;62.61;98053.00;5064941;27;20551;-60
2021/06/29 10:40:03;;;;;;;5.85;2.45;;;;;;;22.05;62.33;98049.06;5066810;28;20804;-60
2021/06/29 10:42:42;;;;;;;2.90;2.45;;;;;;;21.90;62.46;98049.84;5087490;27;20398;-59
2021/06/29 10:45:19;;;;;;;2.95;2.03;;;;;;;21.98;62.35;98044.28;5066822;28;20761;-59
2021/06/29 10:48:20;;;;;;;2.63;2.05;;;;;;;21.90;63.10;98053.31;5066823;27;20552;-58
2021/06/29 10:50:59;;;;;;;2.28;2.08;;;;;;;21.74;63.33;98050.59;5066843;28;20414;-59
2021/06/29 10:53:44;;;;;;;5.25;2.70;;;;;;;21.78;63.15;98050.69;5066596;28;20399;-59
2021/06/29 10:56:23;;;;;;;4.20;1.92;;;;;;;21.76;63.54;98050.22;5065493;27;20919;-59
2021/06/29 10:59:01;;;;;;;3.50;2.15;;;;;;;21.74;63.42;98050.59;5084721;27;20404;-57
2021/06/29 11:01:38;;;;;;;7.72;2.20;;;;;;;21.74;63.52;98055.19;5064207;28;20636;-59
2021/06/29 11:04:14;;;;;;;2.63;2.10;;;;;;;22.01;62.56;98053.59;5064166;28;20409;-58
2021/06/29 11:06:51;;;;;;;2.13;1.92;;;;;;;22.04;62.17;98055.63;5124521;27;20143;-58
2021/06/29 11:09:53;;;;;;;5.13;3.17;;;;;;;22.10;61.83;98062.31;5064365;27;20547;-58
2021/06/29 11:12:52;;;;;;;2.92;1.90;;;;;;;21.98;62.40;98060.47;5065275;28;20410;-60
2021/06/29 11:15:49;;;;;;;2.45;1.67;;;;;;;21.95;62.18;98063.09;5062871;28;20403;-59
2021/06/29 11:18:44;;;;;;;1.75;1.60;;;;;;;21.95;62.27;98060.38;5146677;27;20176;-57
2021/06/29 11:21:20;;;;;;;2.10;1.88;;;;;;;21.77;63.29;98063.38;5063880;28;20411;-58
2021/06/29 11:23:57;;;;;;;1.70;1.60;;;;;;;21.60;63.73;98065.59;5065734;28;20131;-58
2021/06/29 11:26:40;;;;;;;2.58;1.80;;;;;;;21.60;64.33;98068.28;5086962;27;1353127;-59
2021/06/29 11:29:16;;;;;;;3.05;2.10;;;;;;;22.04;62.50;98057.53;5086751;28;20903;-59
2021/06/29 11:31:55;;;;;;;1.83;1.70;;;;;;;22.40;61.91;98060.03;5002476;28;20138;-60
2021/06/29 11:34:33;;;;;;;3.33;1.88;;;;;;;22.79;61.10;98065.59;5087668;28;20409;-57
2021/06/29 11:37:10;;;;;;;2.40;1.67;;;;;;;22.87;60.01;98066.56;5066239;27;20138;-57
2021/06/29 11:39:57;;;;;;;2.55;1.73;;;;;;;23.08;59.52;98064.34;5065467;28;20135;-58
2021/06/29 11:42:34;;;;;;;6.60;1.92;;;;;;;23.07;60.08;98065.50;5067024;28;20399;-58
2021/06/29 11:45:12;;;;;;;2.70;1.80;;;;;;;23.09;58.65;98068.66;5091502;27;20132;-58
2021/06/29 11:47:49;;;;;;;2.90;1.80;;;;;;;22.99;59.02;98052.19;5106813;27;20395;-57
2021/06/29 11:50:25;;;;;;;1.77;1.67;;;;;;;23.08;58.56;98067.06;5067026;27;20604;-58
2021/06/29 11:53:02;;;;;;;1.98;1.77;;;;;;;22.93;59.58;98069.78;5065709;27;20145;-57
2021/06/29 11:55:39;;;;;;;4.60;1.67;;;;;;;22.72;59.95;98067.34;5066715;28;20146;-58
2021/06/29 11:58:15;;;;;;;3.75;1.80;;;;;;;22.52;60.30;98058.38;5065536;28;20647;-57
2021/06/29 12:00:52;;;;;;;3.08;2.35;;;;;;;22.50;60.73;98063.34;5066488;28;20138;-60
2021/06/29 12:03:28;;;;;;;1.77;1.60;;;;;;;22.31;60.85;98054.03;5170209;27;20408;-59
2021/06/29 12:06:05;;;;;;;2.85;1.77;;;;;;;22.25;61.39;98052.72;5065412;27;20130;-59
2021/06/29 12:08:41;;;;;;;1.73;1.60;;;;;;;22.22;61.26;98064.97;5067828;28;20126;-59
2021/06/29 12:11:18;;;;;;;2.55;1.88;;;;;;;22.15;61.84;98061.31;5067526;28;20135;-60
2021/06/29 12:13:55;;;;;;;3.33;1.75;;;;;;;22.15;61.79;98072.09;5065602;28;20532;-59
2021/06/29 12:16:32;;;;;;;4.20;1.90;;;;;;;22.26;61.56;98070.47;4986703;28;20141;-59
2021/06/29 12:19:10;;;;;;;2.60;1.70;;;;;;;22.14;61.96;98067.81;4987228;28;20404;-58
2021/06/29 12:21:48;;;;;;;2.95;1.70;;;;;;;21.97;63.11;98072.41;5066358;27;20399;-58
2021/06/29 12:24:26;;;;;;;3.50;1.80;;;;;;;21.97;63.22;98068.91;5067334;27;20403;-58
2021/06/29 12:27:16;;;;;;;3.47;1.83;;;;;;;22.07;63.11;98075.72;5067140;28;20142;-57
2021/06/29 12:29:53;;;;;;;2.40;1.70;;;;;;;22.20;62.67;98071.84;5065897;28;20406;-57
2021/06/29 12:32:30;;;;;;;1.63;1.52;;;;;;;22.18;62.29;98069.50;5065061;28;20328;-58
2021/06/29 12:35:11;;;;;;;3.05;1.77;;;;;;;22.08;62.66;98074.59;5067823;28;20142;-58
2021/06/29 12:38:04;;;;;;;3.33;1.83;;;;;;;21.83;63.68;98076.63;5067435;27;20402;-57
2021/06/29 12:40:44;;;;;;;2.70;1.98;;;;;;;21.70;64.61;98060.47;5067119;28;20410;-59
2021/06/29 12:43:26;;;;;;;2.08;1.88;;;;;;;21.73;64.78;98075.19;5066612;28;20410;-58
2021/06/29 12:46:20;;;;;;;3.10;1.80;;;;;;;21.71;64.46;98072.84;5066905;27;20406;-58
2021/06/29 12:49:03;;;;;;;1.50;1.40;;;;;;;21.84;63.50;98072.78;5066198;28;20421;-60
2021/06/29 12:51:49;;;;;;;3.30;1.35;;;;;;;22.02;63.21;98070.56;5064203;27;20808;-59
2021/06/29 12:54:28;;;;;;;1.88;1.27;;;;;;;22.06;62.39;98066.03;5066250;28;20403;-58
2021/06/29 12:57:08;;;;;;;1.63;1.10;;;;;;;21.92;62.52;98063.78;5105401;27;20388;-59
2021/06/29 12:59:46;;;;;;;1.48;1.20;;;;;;;21.74;62.80;98061.38;5104114;27;20401;-60
2021/06/29 13:02:27;;;;;;;1.30;1.20;;;;;;;21.42;63.36;98057.78;5066628;28;20394;-57
2021/06/29 13:05:12;;;;;;;1.30;1.20;;;;;;;21.37;64.68;98074.16;5087910;27;20416;-58
2021/06/29 13:07:50;;;;;;;1.60;1.50;;;;;;;21.31;64.88;98070.88;5087312;28;20405;-59
2021/06/29 13:10:28;;;;;;;1.80;1.20;;;;;;;21.28;64.97;98074.28;5065372;28;20391;-58
2021/06/29 13:13:21;;;;;;;2.45;1.15;;;;;;;21.31;65.07;98084.38;5065210;28;20138;-59
2021/06/29 13:15:58;;;;;;;1.30;1.20;;;;;;;21.18;65.39;98084.72;5094074;27;21052;-59
2021/06/29 13:18:36;;;;;;;2.33;1.20;;;;;;;21.34;65.37;98085.59;5066174;28;20138;-60